Lumberton, NC

5:58 AM EDT on September 02, 2014 (GMT -0400)
Fayetteville Road | Change Station
CLOSE
Current Station
Personal Weather Station
Location: Lumberton, NC
Elevation: 126 ft
Nearby Weather Stations

Elev 126 ft 34.67 °N, 78.99 °W | Updated 8 seconds ago

Clear
Clear
77.6 °F
Feels Like 80 °F
N
0.0
Wind Variable Wind from West
Gusts 0.0 mph

Today
High -- | Low -- °F
--% Chance of Precip.
Yesterday
High -- | Low -- °F
Precip. -- in
6:49 AM 7:41 PM
Waxing Crescent, 50% visible
Pressure 30.06 in
Visibility 4.0 miles
Clouds Clear
Heat Index 80 °F
Dew Point 75 °F
Humidity 93%
Rainfall 0.00 in
Snow Depth Not available.
UV 0 out of 12
Pollen 8.70 out of 12
PM2.5 Good
Flu Activity Not available.
METAR KLBT 020954Z AUTO 00000KT 4SM BR CLR 24/23 A3006 RMK AO2 SLP177 T02390233

More Conditions Fewer Conditions

Pressure 30.06 in
Visibility 4.0 miles
Clouds Clear
Heat Index 80 °F
Dew Point 75 °F
Humidity 93%
Rainfall 0.00 in
Snow Depth Not available.
UV 0 out of 12
Pollen 8.70 out of 12
PM2.5 Good
Flu Activity Not available.
METAR KLBT 020954Z AUTO 00000KT 4SM BR CLR 24/23 A3006 RMK AO2 SLP177 T02390233

More Conditions Fewer Conditions

10-Day Weather Forecast

Almanac

Astronomy

Sep. 02, 2014 Rise Set
Actual Time 6:49 AM EDT 7:41 PM EDT
Civil Twilight 6:24 AM EDT 8:06 PM EDT
Nautical Twilight 5:53 AM EDT 8:36 PM EDT
Astronomical Twilight 5:22 AM EDT 9:08 PM EDT
Moon 2:14 PM EDT No Moon Set
Length of Visible Light 13h 42m
Length of Day
12h 51m
Tomorrow will be 2m 5s shorter.
Waxing Crescent, 50% of the Moon is Illuminated
Today
Waxing Crescent
Sep 2
First Quarter
Sep 8
Full
Sep 15
Last Quarter
Sep 24
New

Today's Extremes

State Highs State Lows

Community

WunderPhotos

Upload Photos

1,749,587 photos uploaded!

WunderBlogs® & News

Nearby

Air Quality

  Air Quality AQ Index Pollutant
Yesterday Good
PM2.5
Yesterday Good
OZONE
Current Good
PM2.5
Tuesday Good
OZONE
Tuesday Good
PM2.5
Wednesday Good
PM2.5
Wednesday Good
OZONE
Thursday Good
PM2.5
Thursday Good
OZONE

Snow Depth

Station Depth Elevation
No new snow has been reported.

Earthquake Activity

City Distance Mag. Time & Date
No recent earthquake activity has been reported nearby.
Minimum magnitude displayed is 2.5.

Coastal Water Temperatures

Place Temperature
No Stations Reporting

Nearby Weather Stations